X  Cerrar Datos meteorológicos de aviación METAR     LEVC Valencia
Temperatura
12°C Temperatura
6°C Punto de rocío
67% Humedad



Viento
3 KM/H
2 MPH
1 M/S
2 NUDO



Calma
Norte
Condiciones actuales

Claro Claro
Presión 1021.92 (hPa) - 30.18 (inHg)
Visibilidad 6.2 (milla) - 10 (km)
Aeropuerto
Código de aeropuerto LEVC

localidad Valencia 18 (km)

Metar:
LEVC 101830Z VRB02KT CAVOK 12/06 Q1022 NOSIG

Hora: 10-12-2019 19:30 CET